aviador You're here:

OMAL Decoded Metar

AL AIN in UNITED ARAB EMIRATES
Report Time2017-09-25 20:00:00
UTC Time2017-09-25 20:27:50
Flight Rules vfr VFR
Wind010° at 06 kt
W.Decomp.*RWY 01: 6.0 kt HW 0.1 kt LCW
W.Rank010° ranks 15
Current wind is below 010° avg. (7.1)
Visibility9999 m
Phenomena:N/A
Clouds:N/A
Expected CloudBase > 7,600 ft AGL from Temp-Dew spread
CeilingNone
Temp30°C (ISA +17)
Dew Point11°C (31% RH)
Heat Index28.8°C
AAT28.2°C
QNH1009 hPa
Density Alt3,097 ft
Elevation869 ft
Report Wrong Elevation
Raw Report
METAR OMAL 252000Z 01006KT CAVOK 30/11 Q1009 NOSIG=

Extra information for OMAL:More info

Metar Taf Metar & Taf Last 4 Metars F.Rules Stats Wind Profile Meteogram Temp Stats Airport Information Weather charts Add Link Nearby VenuesMetar ALERT Operation Metar Decoded Social comments